Peace River Airport
CYPE : now visible

Airfield :











YOU CAN JOIN US ON...

 
LOGIN :

Register | Disclaimer

   EN    FR    IT 

 









Legend :    VFR   Marginal VFR   IFR   Intensive IFR   Very Intensive IFR
Visi :
Ceiling :
>= 8 km
>= 3000ft
5 to 8 km
1000 to 3000 ft
1500m to 5 km
500 to 1000 ft
800 to 1500m
200 to 500 ft
< 800m
< 200 ft
Symbols :   Thunderstorms  Fog  Heavy snow  Heavy precipitations  Wind > 20 kt






- Airport Elevation : 1873 ft
- IATA code : YPE


CYPE - Peace River

CURRENT METAR :
  • 250700Z 24012KT 15SM SKC M12/M15 A3045 RMK SLP357

EXPIRED METARs :
  • 250600Z 24011KT 15SM FEW250 M12/M15 A3048 RMK CS1 CS TR SLP366
  • 250500Z 24010KT 15SM FEW250 M11/M15 A3050 RMK CI1 CI TR SLP376
  • 250400Z 24011KT 15SM FEW250 M11/M14 A3051 RMK CI1 CI TR SLP381

TAF TAF CYPE
Valid from the 25 at 07:00 until the 25 at 19:00 UTC


250638Z 2507/2519 24010KT P6SM FEW250
FM251600 24014KT P6SM SCT180 RMK NXT FCST BY 251300Z
CZEG FIR / North America



MET'MAP, your aeronautical weather chart ! - Copyright ORBIFLY December 2007 - Disclaimer

ORBIFLY MET'MAP TEAM :

Programming & Development : Alexandra Zaïnal
Concept & original design : Baudouin d'Aumeries
Assistance for programming : Marc-Olivier Méhu
Technical & hardware support : Manuel Goepfert

Contact : metmap@orbifly.com




SOURCES & CREDITS :

   NOAA       Earth
Advisory